sensor_id;sensor_type;location;lat;lon;timestamp;temperature;humidity
44833;DHT22;30569;51.252;9.830;2023-06-14T00:00:18;14.20;79.70
44833;DHT22;30569;51.252;9.830;2023-06-14T00:02:43;13.90;81.20
44833;DHT22;30569;51.252;9.830;2023-06-14T00:05:09;13.50;81.70
44833;DHT22;30569;51.252;9.830;2023-06-14T00:07:42;13.60;82.30
44833;DHT22;30569;51.252;9.830;2023-06-14T00:10:14;13.70;82.30
44833;DHT22;30569;51.252;9.830;2023-06-14T00:12:40;13.60;82.80
44833;DHT22;30569;51.252;9.830;2023-06-14T00:15:07;13.20;82.90
44833;DHT22;30569;51.252;9.830;2023-06-14T00:17:35;13.20;84.20
44833;DHT22;30569;51.252;9.830;2023-06-14T00:20:03;12.90;84.90
44833;DHT22;30569;51.252;9.830;2023-06-14T00:22:32;12.80;85.70
44833;DHT22;30569;51.252;9.830;2023-06-14T00:24:58;12.60;86.00
44833;DHT22;30569;51.252;9.830;2023-06-14T00:27:23;12.50;87.00
44833;DHT22;30569;51.252;9.830;2023-06-14T00:29:50;12.50;87.70
44833;DHT22;30569;51.252;9.830;2023-06-14T00:32:15;12.60;87.70
44833;DHT22;30569;51.252;9.830;2023-06-14T00:34:41;12.50;87.10
44833;DHT22;30569;51.252;9.830;2023-06-14T00:37:06;12.50;87.20
44833;DHT22;30569;51.252;9.830;2023-06-14T00:39:32;12.60;87.10
44833;DHT22;30569;51.252;9.830;2023-06-14T00:41:57;12.00;89.50
44833;DHT22;30569;51.252;9.830;2023-06-14T00:44:24;11.70;90.90
44833;DHT22;30569;51.252;9.830;2023-06-14T00:46:50;11.70;91.10
44833;DHT22;30569;51.252;9.830;2023-06-14T00:49:17;11.80;91.40
44833;DHT22;30569;51.252;9.830;2023-06-14T00:51:45;11.90;90.90
44833;DHT22;30569;51.252;9.830;2023-06-14T00:54:11;11.60;91.80
44833;DHT22;30569;51.252;9.830;2023-06-14T00:56:37;11.70;91.30
44833;DHT22;30569;51.252;9.830;2023-06-14T00:59:03;11.60;92.20
44833;DHT22;30569;51.252;9.830;2023-06-14T01:01:29;11.60;92.60
44833;DHT22;30569;51.252;9.830;2023-06-14T01:03:58;11.60;92.90
44833;DHT22;30569;51.252;9.830;2023-06-14T01:06:42;11.40;93.60
44833;DHT22;30569;51.252;9.830;2023-06-14T01:09:37;11.30;93.80
44833;DHT22;30569;51.252;9.830;2023-06-14T01:12:13;11.50;93.90
44833;DHT22;30569;51.252;9.830;2023-06-14T01:14:41;11.40;94.20
44833;DHT22;30569;51.252;9.830;2023-06-14T01:17:08;11.40;94.30
44833;DHT22;30569;51.252;9.830;2023-06-14T01:19:41;11.30;95.40
44833;DHT22;30569;51.252;9.830;2023-06-14T01:22:08;11.30;95.80
44833;DHT22;30569;51.252;9.830;2023-06-14T01:24:34;11.20;95.90
44833;DHT22;30569;51.252;9.830;2023-06-14T01:27:00;11.20;96.30
44833;DHT22;30569;51.252;9.830;2023-06-14T01:29:28;11.30;96.00
44833;DHT22;30569;51.252;9.830;2023-06-14T01:31:58;11.20;96.20
44833;DHT22;30569;51.252;9.830;2023-06-14T01:34:24;10.60;97.50
44833;DHT22;30569;51.252;9.830;2023-06-14T01:36:52;10.50;97.80
44833;DHT22;30569;51.252;9.830;2023-06-14T01:39:20;10.50;98.80
44833;DHT22;30569;51.252;9.830;2023-06-14T01:41:47;10.60;99.30
44833;DHT22;30569;51.252;9.830;2023-06-14T01:44:14;10.60;99.40
44833;DHT22;30569;51.252;9.830;2023-06-14T01:46:41;10.30;99.90
44833;DHT22;30569;51.252;9.830;2023-06-14T01:49:07;10.30;99.90
44833;DHT22;30569;51.252;9.830;2023-06-14T01:51:33;10.40;99.90
44833;DHT22;30569;51.252;9.830;2023-06-14T01:53:59;10.40;99.90
44833;DHT22;30569;51.252;9.830;2023-06-14T01:56:25;10.10;99.90
44833;DHT22;30569;51.252;9.830;2023-06-14T01:58:51;10.20;99.90
44833;DHT22;30569;51.252;9.830;2023-06-14T02:01:17;10.00;99.90
44833;DHT22;30569;51.252;9.830;2023-06-14T02:03:44;10.10;99.90
44833;DHT22;30569;51.252;9.830;2023-06-14T02:06:10;10.00;99.90
44833;DHT22;30569;51.252;9.830;2023-06-14T02:08:36;10.10;99.90
44833;DHT22;30569;51.252;9.830;2023-06-14T02:11:01;10.30;99.90
44833;DHT22;30569;51.252;9.830;2023-06-14T02:13:27;10.40;99.90
44833;DHT22;30569;51.252;9.830;2023-06-14T02:15:52;10.20;99.90
44833;DHT22;30569;51.252;9.830;2023-06-14T02:18:20;10.00;99.90
44833;DHT22;30569;51.252;9.830;2023-06-14T02:20:47;9.90;99.90
44833;DHT22;30569;51.252;9.830;2023-06-14T02:23:12;10.00;99.90
44833;DHT22;30569;51.252;9.830;2023-06-14T02:25:38;9.70;99.90
44833;DHT22;30569;51.252;9.830;2023-06-14T02:28:05;9.50;99.90
44833;DHT22;30569;51.252;9.830;2023-06-14T02:30:31;9.50;99.90
44833;DHT22;30569;51.252;9.830;2023-06-14T02:32:56;9.70;99.90
44833;DHT22;30569;51.252;9.830;2023-06-14T02:35:22;10.00;99.90
44833;DHT22;30569;51.252;9.830;2023-06-14T02:37:52;10.00;99.90
44833;DHT22;30569;51.252;9.830;2023-06-14T02:40:18;9.90;99.90
44833;DHT22;30569;51.252;9.830;2023-06-14T02:42:44;9.80;99.90
44833;DHT22;30569;51.252;9.830;2023-06-14T02:45:10;9.80;99.90
44833;DHT22;30569;51.252;9.830;2023-06-14T02:47:35;9.80;99.90
44833;DHT22;30569;51.252;9.830;2023-06-14T02:50:01;9.50;99.90
44833;DHT22;30569;51.252;9.830;2023-06-14T02:52:28;9.60;99.90
44833;DHT22;30569;51.252;9.830;2023-06-14T02:54:53;9.40;99.90
44833;DHT22;30569;51.252;9.830;2023-06-14T02:57:20;9.40;99.90
44833;DHT22;30569;51.252;9.830;2023-06-14T02:59:45;9.20;99.90
44833;DHT22;30569;51.252;9.830;2023-06-14T03:02:11;9.20;99.90
44833;DHT22;30569;51.252;9.830;2023-06-14T03:04:36;9.30;99.90
44833;DHT22;30569;51.252;9.830;2023-06-14T03:07:06;9.20;99.90
44833;DHT22;30569;51.252;9.830;2023-06-14T03:09:35;9.00;99.90
44833;DHT22;30569;51.252;9.830;2023-06-14T03:12:02;8.90;99.90
44833;DHT22;30569;51.252;9.830;2023-06-14T03:14:28;8.90;99.90
44833;DHT22;30569;51.252;9.830;2023-06-14T03:16:56;8.90;99.90
44833;DHT22;30569;51.252;9.830;2023-06-14T03:19:22;9.00;99.90
44833;DHT22;30569;51.252;9.830;2023-06-14T03:21:48;8.90;99.90
44833;DHT22;30569;51.252;9.830;2023-06-14T03:24:14;9.10;99.90
44833;DHT22;30569;51.252;9.830;2023-06-14T03:26:42;9.00;99.90
44833;DHT22;30569;51.252;9.830;2023-06-14T03:29:07;8.80;99.90
44833;DHT22;30569;51.252;9.830;2023-06-14T03:31:34;8.70;99.90
44833;DHT22;30569;51.252;9.830;2023-06-14T03:34:00;8.90;99.90
44833;DHT22;30569;51.252;9.830;2023-06-14T03:36:26;8.70;99.90
44833;DHT22;30569;51.252;9.830;2023-06-14T03:38:53;8.70;99.90
44833;DHT22;30569;51.252;9.830;2023-06-14T03:41:19;8.30;99.90
44833;DHT22;30569;51.252;9.830;2023-06-14T03:43:44;8.50;99.90
44833;DHT22;30569;51.252;9.830;2023-06-14T03:46:10;8.40;99.90
44833;DHT22;30569;51.252;9.830;2023-06-14T03:48:36;8.60;99.90
44833;DHT22;30569;51.252;9.830;2023-06-14T03:51:01;8.60;99.90
44833;DHT22;30569;51.252;9.830;2023-06-14T03:53:27;8.40;99.90
44833;DHT22;30569;51.252;9.830;2023-06-14T03:55:54;8.40;99.90
44833;DHT22;30569;51.252;9.830;2023-06-14T03:58:20;8.50;99.90
44833;DHT22;30569;51.252;9.830;2023-06-14T04:00:45;8.60;99.90
44833;DHT22;30569;51.252;9.830;2023-06-14T04:03:11;8.60;99.90
44833;DHT22;30569;51.252;9.830;2023-06-14T04:05:39;8.70;99.90
44833;DHT22;30569;51.252;9.830;2023-06-14T04:08:07;8.70;99.90
44833;DHT22;30569;51.252;9.830;2023-06-14T04:10:34;8.80;99.90
44833;DHT22;30569;51.252;9.830;2023-06-14T04:13:00;9.00;99.90
44833;DHT22;30569;51.252;9.830;2023-06-14T04:15:25;8.80;99.90
44833;DHT22;30569;51.252;9.830;2023-06-14T04:17:53;8.70;99.90
44833;DHT22;30569;51.252;9.830;2023-06-14T04:20:23;8.80;99.90
44833;DHT22;30569;51.252;9.830;2023-06-14T04:22:50;8.90;99.90
44833;DHT22;30569;51.252;9.830;2023-06-14T04:25:16;9.00;99.90
44833;DHT22;30569;51.252;9.830;2023-06-14T04:27:42;9.20;99.90
44833;DHT22;30569;51.252;9.830;2023-06-14T04:30:08;9.20;99.90
44833;DHT22;30569;51.252;9.830;2023-06-14T04:32:34;9.20;99.90
44833;DHT22;30569;51.252;9.830;2023-06-14T04:35:06;9.60;99.90
44833;DHT22;30569;51.252;9.830;2023-06-14T04:37:32;9.60;99.90
44833;DHT22;30569;51.252;9.830;2023-06-14T04:39:58;9.40;99.90
44833;DHT22;30569;51.252;9.830;2023-06-14T04:42:24;9.30;99.90
44833;DHT22;30569;51.252;9.830;2023-06-14T04:44:51;9.60;99.90
44833;DHT22;30569;51.252;9.830;2023-06-14T04:47:20;9.70;99.90
44833;DHT22;30569;51.252;9.830;2023-06-14T04:49:46;9.90;99.90
44833;DHT22;30569;51.252;9.830;2023-06-14T04:52:12;10.10;99.90
44833;DHT22;30569;51.252;9.830;2023-06-14T04:54:38;10.60;99.90
44833;DHT22;30569;51.252;9.830;2023-06-14T04:57:07;10.60;99.90
44833;DHT22;30569;51.252;9.830;2023-06-14T04:59:34;10.80;99.90
44833;DHT22;30569;51.252;9.830;2023-06-14T05:02:01;11.00;99.90
44833;DHT22;30569;51.252;9.830;2023-06-14T05:04:27;11.20;99.90
44833;DHT22;30569;51.252;9.830;2023-06-14T05:06:53;11.20;99.90
44833;DHT22;30569;51.252;9.830;2023-06-14T05:09:20;11.50;99.90
44833;DHT22;30569;51.252;9.830;2023-06-14T05:11:46;11.70;99.90
44833;DHT22;30569;51.252;9.830;2023-06-14T05:14:13;11.90;99.90
44833;DHT22;30569;51.252;9.830;2023-06-14T05:16:39;12.10;99.90
44833;DHT22;30569;51.252;9.830;2023-06-14T05:19:06;12.60;99.90
44833;DHT22;30569;51.252;9.830;2023-06-14T05:21:31;13.00;99.90
44833;DHT22;30569;51.252;9.830;2023-06-14T05:24:00;13.60;99.90
44833;DHT22;30569;51.252;9.830;2023-06-14T05:26:26;14.10;99.90
44833;DHT22;30569;51.252;9.830;2023-06-14T05:28:56;14.30;99.90
44833;DHT22;30569;51.252;9.830;2023-06-14T05:31:23;14.80;99.90
44833;DHT22;30569;51.252;9.830;2023-06-14T05:33:49;15.00;99.10
44833;DHT22;30569;51.252;9.830;2023-06-14T05:36:15;15.20;97.70
44833;DHT22;30569;51.252;9.830;2023-06-14T05:38:40;15.40;97.80
44833;DHT22;30569;51.252;9.830;2023-06-14T05:41:06;15.60;97.90
44833;DHT22;30569;51.252;9.830;2023-06-14T05:43:31;15.90;97.70
44833;DHT22;30569;51.252;9.830;2023-06-14T05:45:57;16.10;96.40
44833;DHT22;30569;51.252;9.830;2023-06-14T05:48:22;15.90;95.90
44833;DHT22;30569;51.252;9.830;2023-06-14T05:50:48;16.10;95.70
44833;DHT22;30569;51.252;9.830;2023-06-14T05:53:13;16.30;94.80
44833;DHT22;30569;51.252;9.830;2023-06-14T05:55:39;16.70;94.70
44833;DHT22;30569;51.252;9.830;2023-06-14T05:58:04;16.60;94.00
44833;DHT22;30569;51.252;9.830;2023-06-14T06:00:30;16.70;94.20
44833;DHT22;30569;51.252;9.830;2023-06-14T06:02:55;16.70;93.50
44833;DHT22;30569;51.252;9.830;2023-06-14T06:05:23;17.10;93.10
44833;DHT22;30569;51.252;9.830;2023-06-14T06:07:49;17.30;93.50
44833;DHT22;30569;51.252;9.830;2023-06-14T06:10:15;17.20;92.20
44833;DHT22;30569;51.252;9.830;2023-06-14T06:12:41;17.20;91.80
44833;DHT22;30569;51.252;9.830;2023-06-14T06:15:07;17.90;91.30
44833;DHT22;30569;51.252;9.830;2023-06-14T06:17:37;18.00;91.20
44833;DHT22;30569;51.252;9.830;2023-06-14T06:20:03;17.90;90.80
44833;DHT22;30569;51.252;9.830;2023-06-14T06:22:30;17.80;90.80
44833;DHT22;30569;51.252;9.830;2023-06-14T06:24:56;18.30;91.60
44833;DHT22;30569;51.252;9.830;2023-06-14T06:27:21;18.40;90.60
44833;DHT22;30569;51.252;9.830;2023-06-14T06:29:47;18.40;88.90
44833;DHT22;30569;51.252;9.830;2023-06-14T06:32:14;18.50;90.40
44833;DHT22;30569;51.252;9.830;2023-06-14T06:34:40;18.30;89.80
44833;DHT22;30569;51.252;9.830;2023-06-14T06:37:05;18.40;90.20
44833;DHT22;30569;51.252;9.830;2023-06-14T06:39:31;18.60;88.40
44833;DHT22;30569;51.252;9.830;2023-06-14T06:41:57;19.30;88.60
44833;DHT22;30569;51.252;9.830;2023-06-14T06:44:22;20.30;83.30
44833;DHT22;30569;51.252;9.830;2023-06-14T06:46:48;20.30;83.90
44833;DHT22;30569;51.252;9.830;2023-06-14T06:49:13;21.10;80.50
44833;DHT22;30569;51.252;9.830;2023-06-14T06:51:41;22.10;76.60
44833;DHT22;30569;51.252;9.830;2023-06-14T06:54:08;21.90;75.70
44833;DHT22;30569;51.252;9.830;2023-06-14T06:56:34;21.50;73.60
44833;DHT22;30569;51.252;9.830;2023-06-14T06:59:00;21.60;76.70
44833;DHT22;30569;51.252;9.830;2023-06-14T07:01:26;21.40;78.20
44833;DHT22;30569;51.252;9.830;2023-06-14T07:03:57;19.30;84.00
44833;DHT22;30569;51.252;9.830;2023-06-14T07:06:22;20.00;80.30
44833;DHT22;30569;51.252;9.830;2023-06-14T07:08:52;20.00;81.00
44833;DHT22;30569;51.252;9.830;2023-06-14T07:11:18;19.80;80.00
44833;DHT22;30569;51.252;9.830;2023-06-14T07:13:43;20.10;83.30
44833;DHT22;30569;51.252;9.830;2023-06-14T07:16:09;20.40;78.80
44833;DHT22;30569;51.252;9.830;2023-06-14T07:18:34;20.50;78.20
44833;DHT22;30569;51.252;9.830;2023-06-14T07:21:01;20.50;80.00
44833;DHT22;30569;51.252;9.830;2023-06-14T07:23:26;20.70;76.10
44833;DHT22;30569;51.252;9.830;2023-06-14T07:25:52;20.40;77.50
44833;DHT22;30569;51.252;9.830;2023-06-14T07:28:17;20.30;78.00
44833;DHT22;30569;51.252;9.830;2023-06-14T07:30:44;20.50;79.90
44833;DHT22;30569;51.252;9.830;2023-06-14T07:33:09;21.20;76.60
44833;DHT22;30569;51.252;9.830;2023-06-14T07:35:36;22.00;73.60
44833;DHT22;30569;51.252;9.830;2023-06-14T07:38:02;21.50;73.70
44833;DHT22;30569;51.252;9.830;2023-06-14T07:40:27;21.00;75.20
44833;DHT22;30569;51.252;9.830;2023-06-14T07:42:53;20.20;76.90
44833;DHT22;30569;51.252;9.830;2023-06-14T07:45:20;20.80;77.30
44833;DHT22;30569;51.252;9.830;2023-06-14T07:47:45;20.80;77.90
44833;DHT22;30569;51.252;9.830;2023-06-14T07:50:11;20.70;80.40
44833;DHT22;30569;51.252;9.830;2023-06-14T07:52:38;20.60;78.90
44833;DHT22;30569;51.252;9.830;2023-06-14T07:55:04;20.90;77.40
44833;DHT22;30569;51.252;9.830;2023-06-14T07:57:29;21.10;78.60
44833;DHT22;30569;51.252;9.830;2023-06-14T07:59:55;20.70;77.90
44833;DHT22;30569;51.252;9.830;2023-06-14T08:02:20;20.10;82.30
44833;DHT22;30569;51.252;9.830;2023-06-14T08:04:46;19.90;81.90
44833;DHT22;30569;51.252;9.830;2023-06-14T08:07:14;20.00;83.90
44833;DHT22;30569;51.252;9.830;2023-06-14T08:09:39;20.30;81.40
44833;DHT22;30569;51.252;9.830;2023-06-14T08:12:06;20.80;78.40
44833;DHT22;30569;51.252;9.830;2023-06-14T08:14:38;24.60;71.50
44833;DHT22;30569;51.252;9.830;2023-06-14T08:17:04;25.00;70.60
44833;DHT22;30569;51.252;9.830;2023-06-14T08:19:30;26.90;63.00
44833;DHT22;30569;51.252;9.830;2023-06-14T08:21:56;25.30;62.30
44833;DHT22;30569;51.252;9.830;2023-06-14T08:24:22;23.30;67.60
44833;DHT22;30569;51.252;9.830;2023-06-14T08:26:53;23.20;68.10
44833;DHT22;30569;51.252;9.830;2023-06-14T08:29:18;22.10;70.10
44833;DHT22;30569;51.252;9.830;2023-06-14T08:31:44;21.50;75.80
44833;DHT22;30569;51.252;9.830;2023-06-14T08:34:09;22.60;70.50
44833;DHT22;30569;51.252;9.830;2023-06-14T08:36:35;22.90;72.40
44833;DHT22;30569;51.252;9.830;2023-06-14T08:39:01;23.10;69.30
44833;DHT22;30569;51.252;9.830;2023-06-14T08:41:28;24.60;69.60
44833;DHT22;30569;51.252;9.830;2023-06-14T08:43:55;25.10;64.80
44833;DHT22;30569;51.252;9.830;2023-06-14T08:46:21;24.50;63.50
44833;DHT22;30569;51.252;9.830;2023-06-14T08:48:51;24.60;64.40
44833;DHT22;30569;51.252;9.830;2023-06-14T08:51:19;23.80;67.00
44833;DHT22;30569;51.252;9.830;2023-06-14T08:53:52;22.70;68.40
44833;DHT22;30569;51.252;9.830;2023-06-14T08:56:18;23.80;66.20
44833;DHT22;30569;51.252;9.830;2023-06-14T08:58:46;25.50;64.10
44833;DHT22;30569;51.252;9.830;2023-06-14T09:01:13;25.00;63.40
44833;DHT22;30569;51.252;9.830;2023-06-14T09:03:40;23.50;65.40
44833;DHT22;30569;51.252;9.830;2023-06-14T09:06:07;23.00;67.10
44833;DHT22;30569;51.252;9.830;2023-06-14T09:08:34;23.80;66.60
44833;DHT22;30569;51.252;9.830;2023-06-14T09:11:01;25.90;63.50
44833;DHT22;30569;51.252;9.830;2023-06-14T09:13:27;28.30;58.10
44833;DHT22;30569;51.252;9.830;2023-06-14T09:15:53;29.20;55.40
44833;DHT22;30569;51.252;9.830;2023-06-14T09:18:19;29.20;56.40
44833;DHT22;30569;51.252;9.830;2023-06-14T09:20:48;29.10;55.10
44833;DHT22;30569;51.252;9.830;2023-06-14T09:23:13;28.60;56.80
44833;DHT22;30569;51.252;9.830;2023-06-14T09:25:46;27.60;56.00
44833;DHT22;30569;51.252;9.830;2023-06-14T09:28:11;26.00;57.30
44833;DHT22;30569;51.252;9.830;2023-06-14T09:30:38;25.50;61.10
44833;DHT22;30569;51.252;9.830;2023-06-14T09:33:03;26.70;58.90
44833;DHT22;30569;51.252;9.830;2023-06-14T09:35:31;26.90;57.80
44833;DHT22;30569;51.252;9.830;2023-06-14T09:37:57;26.90;57.60
44833;DHT22;30569;51.252;9.830;2023-06-14T09:40:23;26.00;58.50
44833;DHT22;30569;51.252;9.830;2023-06-14T09:42:49;25.90;58.40
44833;DHT22;30569;51.252;9.830;2023-06-14T09:45:15;24.30;60.50
44833;DHT22;30569;51.252;9.830;2023-06-14T09:47:48;24.20;61.00
44833;DHT22;30569;51.252;9.830;2023-06-14T09:50:14;23.50;63.70
44833;DHT22;30569;51.252;9.830;2023-06-14T09:52:42;24.30;60.40
44833;DHT22;30569;51.252;9.830;2023-06-14T09:55:12;25.30;56.90
44833;DHT22;30569;51.252;9.830;2023-06-14T09:57:41;25.30;62.50
44833;DHT22;30569;51.252;9.830;2023-06-14T10:00:08;25.60;59.30
44833;DHT22;30569;51.252;9.830;2023-06-14T10:02:38;25.40;57.40
44833;DHT22;30569;51.252;9.830;2023-06-14T10:05:08;24.90;57.50
44833;DHT22;30569;51.252;9.830;2023-06-14T10:07:42;25.10;59.30
44833;DHT22;30569;51.252;9.830;2023-06-14T10:10:10;24.90;59.80
44833;DHT22;30569;51.252;9.830;2023-06-14T10:12:36;24.50;61.70
44833;DHT22;30569;51.252;9.830;2023-06-14T10:15:02;24.60;63.70
44833;DHT22;30569;51.252;9.830;2023-06-14T10:21:21;24.00;59.10
44833;DHT22;30569;51.252;9.830;2023-06-14T10:23:27;24.20;63.70
44833;DHT22;30569;51.252;9.830;2023-06-14T10:25:56;24.70;63.30
44833;DHT22;30569;51.252;9.830;2023-06-14T10:28:23;24.70;64.50
44833;DHT22;30569;51.252;9.830;2023-06-14T10:33:29;24.70;62.20
44833;DHT22;30569;51.252;9.830;2023-06-14T10:41:28;24.40;59.60
44833;DHT22;30569;51.252;9.830;2023-06-14T10:46:59;23.20;62.90
44833;DHT22;30569;51.252;9.830;2023-06-14T10:52:14;22.90;66.90
44833;DHT22;30569;51.252;9.830;2023-06-14T10:55:04;22.50;63.40
44833;DHT22;30569;51.252;9.830;2023-06-14T10:57:32;22.20;64.20
44833;DHT22;30569;51.252;9.830;2023-06-14T11:00:03;22.20;63.10
44833;DHT22;30569;51.252;9.830;2023-06-14T11:05:51;22.60;64.50
44833;DHT22;30569;51.252;9.830;2023-06-14T11:08:39;22.70;62.80
44833;DHT22;30569;51.252;9.830;2023-06-14T11:11:07;22.80;66.40
44833;DHT22;30569;51.252;9.830;2023-06-14T11:13:33;22.80;64.80
44833;DHT22;30569;51.252;9.830;2023-06-14T11:16:00;22.80;66.30
44833;DHT22;30569;51.252;9.830;2023-06-14T11:18:25;22.60;61.00
44833;DHT22;30569;51.252;9.830;2023-06-14T11:20:53;22.10;63.00
44833;DHT22;30569;51.252;9.830;2023-06-14T11:23:18;22.10;61.20
44833;DHT22;30569;51.252;9.830;2023-06-14T11:25:49;22.00;60.70
44833;DHT22;30569;51.252;9.830;2023-06-14T11:28:14;22.10;61.20
44833;DHT22;30569;51.252;9.830;2023-06-14T11:30:40;22.20;63.30
44833;DHT22;30569;51.252;9.830;2023-06-14T11:33:09;22.30;63.60
44833;DHT22;30569;51.252;9.830;2023-06-14T11:35:35;22.40;62.00
44833;DHT22;30569;51.252;9.830;2023-06-14T11:38:01;22.40;65.60
44833;DHT22;30569;51.252;9.830;2023-06-14T11:40:27;22.50;64.40
44833;DHT22;30569;51.252;9.830;2023-06-14T11:42:59;22.60;62.30
44833;DHT22;30569;51.252;9.830;2023-06-14T11:45:26;22.70;61.50
44833;DHT22;30569;51.252;9.830;2023-06-14T11:47:55;22.90;60.70
44833;DHT22;30569;51.252;9.830;2023-06-14T11:50:22;22.60;62.70
44833;DHT22;30569;51.252;9.830;2023-06-14T11:52:55;23.10;60.60
44833;DHT22;30569;51.252;9.830;2023-06-14T11:55:22;22.90;59.60
44833;DHT22;30569;51.252;9.830;2023-06-14T11:57:48;23.00;63.90
44833;DHT22;30569;51.252;9.830;2023-06-14T12:00:14;22.80;62.60
44833;DHT22;30569;51.252;9.830;2023-06-14T12:02:41;22.90;61.60
44833;DHT22;30569;51.252;9.830;2023-06-14T12:05:07;22.90;63.10
44833;DHT22;30569;51.252;9.830;2023-06-14T12:07:36;22.90;62.20
44833;DHT22;30569;51.252;9.830;2023-06-14T12:12:28;23.20;62.10
44833;DHT22;30569;51.252;9.830;2023-06-14T12:14:57;23.10;62.60
44833;DHT22;30569;51.252;9.830;2023-06-14T12:17:22;23.10;61.90
44833;DHT22;30569;51.252;9.830;2023-06-14T12:19:49;22.90;65.40
44833;DHT22;30569;51.252;9.830;2023-06-14T12:22:16;22.80;60.50
44833;DHT22;30569;51.252;9.830;2023-06-14T12:24:46;22.50;63.70
44833;DHT22;30569;51.252;9.830;2023-06-14T12:27:12;22.40;66.50
44833;DHT22;30569;51.252;9.830;2023-06-14T12:29:43;22.60;61.50
44833;DHT22;30569;51.252;9.830;2023-06-14T12:32:09;22.80;61.50
44833;DHT22;30569;51.252;9.830;2023-06-14T12:34:35;22.70;63.00
44833;DHT22;30569;51.252;9.830;2023-06-14T12:37:01;22.70;63.60
44833;DHT22;30569;51.252;9.830;2023-06-14T12:39:26;22.80;61.90
44833;DHT22;30569;51.252;9.830;2023-06-14T12:41:53;22.80;62.10
44833;DHT22;30569;51.252;9.830;2023-06-14T12:44:19;22.80;62.90
44833;DHT22;30569;51.252;9.830;2023-06-14T12:46:45;23.00;64.20
44833;DHT22;30569;51.252;9.830;2023-06-14T12:49:11;22.80;63.20
44833;DHT22;30569;51.252;9.830;2023-06-14T12:51:38;23.00;65.20
44833;DHT22;30569;51.252;9.830;2023-06-14T12:54:04;22.70;62.30
44833;DHT22;30569;51.252;9.830;2023-06-14T12:56:30;22.80;62.60
44833;DHT22;30569;51.252;9.830;2023-06-14T12:58:55;22.70;64.40
44833;DHT22;30569;51.252;9.830;2023-06-14T13:01:21;22.70;64.80
44833;DHT22;30569;51.252;9.830;2023-06-14T13:03:47;22.90;68.40
44833;DHT22;30569;51.252;9.830;2023-06-14T13:06:13;23.40;63.00
44833;DHT22;30569;51.252;9.830;2023-06-14T13:08:39;23.80;66.20
44833;DHT22;30569;51.252;9.830;2023-06-14T13:11:04;23.50;60.50
44833;DHT22;30569;51.252;9.830;2023-06-14T13:13:30;23.20;61.40
44833;DHT22;30569;51.252;9.830;2023-06-14T13:15:56;22.90;60.30
44833;DHT22;30569;51.252;9.830;2023-06-14T13:18:21;22.90;62.70
44833;DHT22;30569;51.252;9.830;2023-06-14T13:20:47;23.50;62.00
44833;DHT22;30569;51.252;9.830;2023-06-14T13:23:13;23.40;61.80
44833;DHT22;30569;51.252;9.830;2023-06-14T13:25:39;23.80;62.00
44833;DHT22;30569;51.252;9.830;2023-06-14T13:28:05;23.40;60.90
44833;DHT22;30569;51.252;9.830;2023-06-14T13:30:32;23.20;61.30
44833;DHT22;30569;51.252;9.830;2023-06-14T13:32:58;23.40;60.70
44833;DHT22;30569;51.252;9.830;2023-06-14T13:35:24;23.20;60.50
44833;DHT22;30569;51.252;9.830;2023-06-14T13:37:50;23.10;60.70
44833;DHT22;30569;51.252;9.830;2023-06-14T13:40:15;23.30;62.50
44833;DHT22;30569;51.252;9.830;2023-06-14T13:42:41;23.30;59.80
44833;DHT22;30569;51.252;9.830;2023-06-14T13:45:07;23.20;62.60
44833;DHT22;30569;51.252;9.830;2023-06-14T13:47:33;23.40;63.50
44833;DHT22;30569;51.252;9.830;2023-06-14T13:49:59;23.40;63.30
44833;DHT22;30569;51.252;9.830;2023-06-14T13:52:25;23.40;62.40
44833;DHT22;30569;51.252;9.830;2023-06-14T13:54:51;23.10;63.30
44833;DHT22;30569;51.252;9.830;2023-06-14T13:57:17;23.10;60.60
44833;DHT22;30569;51.252;9.830;2023-06-14T13:59:43;23.40;64.10
44833;DHT22;30569;51.252;9.830;2023-06-14T14:02:12;23.20;60.40
44833;DHT22;30569;51.252;9.830;2023-06-14T14:04:38;23.30;63.00
44833;DHT22;30569;51.252;9.830;2023-06-14T14:07:05;23.30;62.60
44833;DHT22;30569;51.252;9.830;2023-06-14T14:09:31;23.30;66.70
44833;DHT22;30569;51.252;9.830;2023-06-14T14:11:58;23.20;63.40
44833;DHT22;30569;51.252;9.830;2023-06-14T14:14:24;22.50;63.30
44833;DHT22;30569;51.252;9.830;2023-06-14T14:16:50;22.40;63.80
44833;DHT22;30569;51.252;9.830;2023-06-14T14:19:23;22.20;65.30
44833;DHT22;30569;51.252;9.830;2023-06-14T14:21:48;22.40;63.80
44833;DHT22;30569;51.252;9.830;2023-06-14T14:24:14;22.50;64.10
44833;DHT22;30569;51.252;9.830;2023-06-14T14:26:41;22.30;66.40
44833;DHT22;30569;51.252;9.830;2023-06-14T14:29:07;22.20;66.00
44833;DHT22;30569;51.252;9.830;2023-06-14T14:31:32;22.10;67.30
44833;DHT22;30569;51.252;9.830;2023-06-14T14:33:58;22.10;66.40
44833;DHT22;30569;51.252;9.830;2023-06-14T14:36:23;22.50;65.00
44833;DHT22;30569;51.252;9.830;2023-06-14T14:38:49;22.70;65.00
44833;DHT22;30569;51.252;9.830;2023-06-14T14:41:17;22.90;66.80
44833;DHT22;30569;51.252;9.830;2023-06-14T14:43:42;22.70;64.00
44833;DHT22;30569;51.252;9.830;2023-06-14T14:46:08;22.90;66.90
44833;DHT22;30569;51.252;9.830;2023-06-14T14:48:33;23.20;65.10
44833;DHT22;30569;51.252;9.830;2023-06-14T14:50:59;23.40;65.30
44833;DHT22;30569;51.252;9.830;2023-06-14T14:53:24;23.30;67.20
44833;DHT22;30569;51.252;9.830;2023-06-14T14:55:50;22.50;63.70
44833;DHT22;30569;51.252;9.830;2023-06-14T14:58:15;22.50;62.90
44833;DHT22;30569;51.252;9.830;2023-06-14T15:00:44;22.80;68.60
44833;DHT22;30569;51.252;9.830;2023-06-14T15:03:10;23.10;63.20
44833;DHT22;30569;51.252;9.830;2023-06-14T15:05:35;22.60;62.60
44833;DHT22;30569;51.252;9.830;2023-06-14T15:08:02;22.70;62.70
44833;DHT22;30569;51.252;9.830;2023-06-14T15:10:28;22.60;64.50
44833;DHT22;30569;51.252;9.830;2023-06-14T15:12:53;22.70;64.50
44833;DHT22;30569;51.252;9.830;2023-06-14T15:15:19;22.70;64.90
44833;DHT22;30569;51.252;9.830;2023-06-14T15:17:45;22.90;64.00
44833;DHT22;30569;51.252;9.830;2023-06-14T15:20:11;22.90;63.00
44833;DHT22;30569;51.252;9.830;2023-06-14T15:22:38;22.90;65.10
44833;DHT22;30569;51.252;9.830;2023-06-14T15:25:04;23.20;65.30
44833;DHT22;30569;51.252;9.830;2023-06-14T15:27:29;23.30;64.30
44833;DHT22;30569;51.252;9.830;2023-06-14T15:29:55;23.10;65.40
44833;DHT22;30569;51.252;9.830;2023-06-14T15:34:47;23.00;66.20
44833;DHT22;30569;51.252;9.830;2023-06-14T15:37:13;23.20;65.00
44833;DHT22;30569;51.252;9.830;2023-06-14T15:39:38;22.90;65.20
44833;DHT22;30569;51.252;9.830;2023-06-14T15:42:04;22.80;62.60
44833;DHT22;30569;51.252;9.830;2023-06-14T15:44:31;23.00;64.60
44833;DHT22;30569;51.252;9.830;2023-06-14T15:46:56;23.00;65.90
44833;DHT22;30569;51.252;9.830;2023-06-14T15:49:22;22.80;65.00
44833;DHT22;30569;51.252;9.830;2023-06-14T15:51:47;22.90;63.90
44833;DHT22;30569;51.252;9.830;2023-06-14T15:54:13;22.90;65.10